Time;durP1;ratioP1;P1;durP2;ratioP2;P2;SDS_P1;SDS_P2;PMS_P1;PMS_P2;Temp;Humidity;BMP_temperature;BMP_pressure;BME280_temperature;BME280_humidity;BME280_pressure;Samples;Min_cycle;Max_cycle;Signal;HPM_P1;HPM_P2
2023/06/19 17:56:50;;;;;;;;;7.00;7.00;;;;;;;;5102299;27;13480;-74
2023/06/19 17:59:15;;;;;;;;;9.33;8.33;;;;;;;;5106079;28;8816;-73
2023/06/19 18:01:40;;;;;;;;;12.00;11.00;;;;;;;;5103909;28;8896;-73
2023/06/19 18:04:06;;;;;;;;;11.00;11.00;;;;;;;;5106680;28;8833;-73
2023/06/19 18:06:31;;;;;;;;;10.67;9.00;;;;;;;;5104872;28;8812;-73
2023/06/19 18:08:56;;;;;;;;;11.00;11.00;;;;;;;;5106683;28;9524;-73
2023/06/19 18:11:22;;;;;;;;;13.00;13.00;;;;;;;;5105926;28;8820;-73
2023/06/19 18:13:47;;;;;;;;;10.33;10.33;;;;;;;;5106218;28;8796;-74
2023/06/19 18:16:12;;;;;;;;;8.33;8.33;;;;;;;;5106050;28;8823;-72
2023/06/19 18:18:37;;;;;;;;;10.00;10.00;;;;;;;;5108000;28;8788;-73
2023/06/19 18:21:03;;;;;;;;;11.33;9.67;;;;;;;;5104685;28;8863;-75
2023/06/19 18:23:28;;;;;;;;;11.33;11.00;;;;;;;;5106758;28;8846;-74
2023/06/19 18:25:53;;;;;;;;;13.00;12.00;;;;;;;;5106648;28;8797;-73
2023/06/19 18:28:19;;;;;;;;;10.33;10.33;;;;;;;;5106849;28;9614;-72
2023/06/19 18:30:44;;;;;;;;;17.67;16.33;;;;;;;;5104530;28;8832;-72
2023/06/19 18:33:09;;;;;;;;;12.33;10.00;;;;;;;;5105112;28;8880;-73
2023/06/19 18:35:35;;;;;;;;;10.67;10.00;;;;;;;;5105008;28;8823;-75
2023/06/19 18:38:00;;;;;;;;;9.67;9.33;;;;;;;;5098807;28;8823;-72
2023/06/19 18:40:25;;;;;;;;;9.67;9.00;;;;;;;;5087101;27;8826;-76
2023/06/19 18:42:50;;;;;;;;;10.00;10.00;;;;;;;;5112009;28;8784;-79
2023/06/19 18:45:16;;;;;;;;;11.00;11.00;;;;;;;;5107294;28;8787;-77
2023/06/19 18:47:41;;;;;;;;;12.33;11.00;;;;;;;;5106334;28;8950;-80
2023/06/19 18:50:09;;;;;;;;;12.00;11.67;;;;;;;;5104723;28;8981;-76
2023/06/19 18:52:34;;;;;;;;;10.75;10.75;;;;;;;;5102507;28;8948;-78
2023/06/19 18:54:59;;;;;;;;;11.67;11.00;;;;;;;;5096133;28;8850;-75
2023/06/19 18:57:27;;;;;;;;;9.67;9.00;;;;;;;;5085845;28;8898;-74
2023/06/19 18:59:54;;;;;;;;;10.50;10.50;;;;;;;;5084212;28;8922;-75
2023/06/19 19:02:19;;;;;;;;;10.50;10.50;;;;;;;;5118815;27;8951;-73
2023/06/19 19:04:45;;;;;;;;;14.33;14.00;;;;;;;;5108723;27;9009;-75
2023/06/19 19:07:10;;;;;;;;;12.00;12.00;;;;;;;;5097609;28;8904;-76
2023/06/19 19:09:35;;;;;;;;;11.67;11.67;;;;;;;;5091547;28;8877;-75
2023/06/19 19:12:00;;;;;;;;;15.33;15.33;;;;;;;;5091159;28;8808;-79
2023/06/19 19:14:26;;;;;;;;;15.00;14.00;;;;;;;;5092251;28;8852;-76
2023/06/19 19:16:51;;;;;;;;;11.00;11.00;;;;;;;;5090248;28;8815;-75
2023/06/19 19:19:16;;;;;;;;;13.00;13.00;;;;;;;;5089306;28;9582;-76
2023/06/19 19:21:41;;;;;;;;;11.33;10.00;;;;;;;;5090942;28;8807;-74
2023/06/19 19:24:07;;;;;;;;;13.33;12.00;;;;;;;;5090192;28;8824;-76
2023/06/19 19:26:33;;;;;;;;;10.33;10.33;;;;;;;;5089729;28;8834;-75
2023/06/19 19:28:58;;;;;;;;;17.33;15.67;;;;;;;;5089689;28;8889;-75
2023/06/19 19:31:23;;;;;;;;;12.00;11.33;;;;;;;;5096797;28;11501;-75
2023/06/19 19:33:48;;;;;;;;;14.67;14.00;;;;;;;;5100734;28;8852;-71
2023/06/19 19:36:14;;;;;;;;;14.33;12.00;;;;;;;;5090218;28;8815;-72
2023/06/19 19:38:39;;;;;;;;;10.33;10.33;;;;;;;;5090733;28;8807;-71
2023/06/19 19:41:05;;;;;;;;;13.00;13.00;;;;;;;;5090985;28;8892;-72
2023/06/19 19:43:30;;;;;;;;;12.00;12.00;;;;;;;;5092207;28;8873;-72
2023/06/19 19:45:55;;;;;;;;;10.00;10.00;;;;;;;;5092210;28;8809;-72
2023/06/19 19:48:21;;;;;;;;;13.33;12.00;;;;;;;;5091844;28;8808;-73
2023/06/19 19:50:46;;;;;;;;;12.33;10.67;;;;;;;;5092678;28;8828;-71
2023/06/19 19:53:11;;;;;;;;;12.33;12.33;;;;;;;;5112235;28;8816;-71
2023/06/19 19:55:36;;;;;;;;;11.00;11.00;;;;;;;;5112079;28;8905;-70
2023/06/19 19:58:02;;;;;;;;;11.67;11.33;;;;;;;;5112319;28;8804;-72
2023/06/19 20:00:27;;;;;;;;;18.33;17.67;;;;;;;;5109006;28;8912;-71
2023/06/19 20:02:53;;;;;;;;;13.67;13.67;;;;;;;;5091763;28;8917;-71
2023/06/19 20:05:18;;;;;;;;;11.33;10.33;;;;;;;;5091323;28;8784;-71
2023/06/19 20:07:43;;;;;;;;;12.67;12.67;;;;;;;;5091562;28;8912;-74
2023/06/19 20:10:08;;;;;;;;;11.33;10.67;;;;;;;;5090880;28;8796;-70
2023/06/19 20:12:34;;;;;;;;;14.33;12.00;;;;;;;;5090032;28;8812;-71
2023/06/19 20:15:01;;;;;;;;;11.67;10.33;;;;;;;;5091259;28;8958;-71
2023/06/19 20:17:27;;;;;;;;;11.50;11.50;;;;;;;;5090764;28;8922;-71
2023/06/19 20:19:53;;;;;;;;;10.75;10.75;;;;;;;;5089422;28;8795;-72
2023/06/19 20:22:18;;;;;;;;;11.00;11.00;;;;;;;;5105955;28;8813;-72
2023/06/19 20:24:43;;;;;;;;;9.00;8.67;;;;;;;;5109913;28;8808;-71
2023/06/19 20:27:10;;;;;;;;;12.00;11.00;;;;;;;;5103710;28;8780;-72
2023/06/19 20:29:36;;;;;;;;;9.75;9.75;;;;;;;;5096233;28;8824;-72
2023/06/19 20:32:01;;;;;;;;;9.00;9.00;;;;;;;;5082094;28;8823;-71
2023/06/19 20:34:27;;;;;;;;;8.67;7.67;;;;;;;;5090913;28;9514;-72
2023/06/19 20:36:52;;;;;;;;;11.00;9.00;;;;;;;;5089497;28;9625;-69
2023/06/19 20:39:18;;;;;;;;;9.33;9.00;;;;;;;;5091007;28;8792;-73
2023/06/19 20:41:48;;;;;;;;;8.33;8.33;;;;;;;;5090741;28;8827;-72
2023/06/19 20:44:14;;;;;;;;;10.00;8.75;;;;;;;;5090677;28;8799;-71
2023/06/19 20:46:40;;;;;;;;;11.00;9.75;;;;;;;;5089876;28;8820;-81
2023/06/19 20:49:05;;;;;;;;;10.00;8.00;;;;;;;;5090476;28;8830;-75
2023/06/19 20:51:30;;;;;;;;;11.67;9.00;;;;;;;;5089042;28;8953;-74
2023/06/19 20:53:56;;;;;;;;;11.00;11.00;;;;;;;;5089365;28;8792;-77
2023/06/19 20:56:21;;;;;;;;;9.33;9.33;;;;;;;;5088858;28;8838;-74
2023/06/19 20:58:46;;;;;;;;;14.00;12.67;;;;;;;;5088989;28;8807;-71
2023/06/19 21:01:11;;;;;;;;;12.33;10.33;;;;;;;;5097596;28;8778;-72
2023/06/19 21:03:37;;;;;;;;;13.67;11.33;;;;;;;;5091477;28;8905;-72
2023/06/19 21:06:02;;;;;;;;;15.00;12.00;;;;;;;;5086771;28;8796;-72
2023/06/19 21:08:30;;;;;;;;;11.67;11.00;;;;;;;;5087906;28;8841;-73
2023/06/19 21:10:57;;;;;;;;;13.00;12.25;;;;;;;;5090846;28;8817;-73
2023/06/19 21:13:22;;;;;;;;;12.75;11.00;;;;;;;;5096268;28;8799;-72
2023/06/19 21:15:49;;;;;;;;;9.33;9.00;;;;;;;;5097862;28;8887;-74
2023/06/19 21:18:15;;;;;;;;;14.00;13.00;;;;;;;;5101410;28;8811;-74
2023/06/19 21:20:40;;;;;;;;;14.67;12.67;;;;;;;;5088021;28;9737;-72
2023/06/19 21:23:06;;;;;;;;;13.67;13.00;;;;;;;;5088349;28;8943;-73
2023/06/19 21:25:31;;;;;;;;;15.00;15.00;;;;;;;;5088300;28;8804;-73
2023/06/19 21:27:58;;;;;;;;;5.33;4.67;;;;;;;;5088412;28;8795;-73
2023/06/19 21:30:23;;;;;;;;;11.50;10.75;;;;;;;;5088073;28;8788;-73
2023/06/19 21:32:48;;;;;;;;;14.00;13.33;;;;;;;;5086231;28;9638;-72
2023/06/19 21:35:14;;;;;;;;;11.00;11.00;;;;;;;;5088258;28;8830;-72
2023/06/19 21:37:39;;;;;;;;;9.67;9.33;;;;;;;;5088149;28;10214;-71
2023/06/19 21:40:05;;;;;;;;;11.00;11.00;;;;;;;;5086901;28;8814;-72
2023/06/19 21:42:30;;;;;;;;;12.00;12.00;;;;;;;;5087017;28;9668;-71
2023/06/19 21:44:55;;;;;;;;;14.00;13.33;;;;;;;;5086551;28;8796;-76
2023/06/19 21:47:20;;;;;;;;;14.67;14.00;;;;;;;;5069130;28;8786;-73
2023/06/19 21:49:46;;;;;;;;;13.33;13.33;;;;;;;;5082006;28;8838;-76
2023/06/19 21:52:11;;;;;;;;;15.00;14.00;;;;;;;;5087710;28;8780;-75
2023/06/19 21:54:36;;;;;;;;;16.00;14.33;;;;;;;;5088200;28;8792;-75
2023/06/19 21:57:02;;;;;;;;;15.67;14.67;;;;;;;;5089824;28;8776;-76
2023/06/19 21:59:27;;;;;;;;;12.67;12.67;;;;;;;;5087498;28;8882;-75
2023/06/19 22:01:52;;;;;;;;;10.67;9.00;;;;;;;;5087678;28;8811;-76
2023/06/19 22:04:17;;;;;;;;;15.67;15.67;;;;;;;;5086098;28;8807;-72
2023/06/19 22:06:43;;;;;;;;;15.67;15.67;;;;;;;;5087716;28;9023;-73
2023/06/19 22:09:08;;;;;;;;;15.00;14.00;;;;;;;;5086290;28;8799;-73
2023/06/19 22:11:33;;;;;;;;;14.33;14.33;;;;;;;;5087665;28;8775;-73
2023/06/19 22:14:00;;;;;;;;;14.67;13.00;;;;;;;;5086583;28;8780;-73
2023/06/19 22:16:25;;;;;;;;;14.33;14.33;;;;;;;;5088147;28;8847;-73
2023/06/19 22:18:51;;;;;;;;;14.67;12.00;;;;;;;;5089476;28;9198;-73
2023/06/19 22:21:16;;;;;;;;;15.67;15.00;;;;;;;;5089647;28;8799;-73
2023/06/19 22:23:42;;;;;;;;;15.00;13.00;;;;;;;;5089648;28;8908;-74
2023/06/19 22:26:08;;;;;;;;;15.00;14.00;;;;;;;;5089613;28;8942;-74
2023/06/19 22:28:33;;;;;;;;;13.33;13.33;;;;;;;;5089504;28;9160;-72
2023/06/19 22:30:58;;;;;;;;;15.33;14.00;;;;;;;;5089014;28;8792;-73
